Time;durP1;ratioP1;P1;durP2;ratioP2;P2;SDS_P1;SDS_P2;PMS_P1;PMS_P2;Temp;Humidity;BMP_temperature;BMP_pressure;BME280_temperature;BME280_humidity;BME280_pressure;Samples;Min_cycle;Max_cycle;Signal;HPM_P1;HPM_P2
2021/06/24 00:01:46;;;;;;;17.63;15.80;;;15.40;99.90;;;;;;5011262;28;20614;-67
2021/06/24 00:04:12;;;;;;;16.93;15.33;;;15.40;99.90;;;;;;5011794;28;20821;-66
2021/06/24 00:06:37;;;;;;;18.30;15.93;;;15.40;99.90;;;;;;5011069;28;20196;-67
2021/06/24 00:09:03;;;;;;;16.97;15.37;;;15.40;99.90;;;;;;5011743;28;20181;-66
2021/06/24 00:11:29;;;;;;;18.73;16.80;;;15.30;99.90;;;;;;5010997;28;20245;-67
2021/06/24 00:13:55;;;;;;;17.27;15.57;;;15.30;99.90;;;;;;5011611;28;20176;-66
2021/06/24 00:16:20;;;;;;;16.90;15.30;;;15.30;99.90;;;;;;5011294;28;20199;-66
2021/06/24 00:18:46;;;;;;;19.00;15.07;;;15.30;99.90;;;;;;5011666;28;20172;-67
2021/06/24 00:21:12;;;;;;;16.70;15.20;;;15.30;99.90;;;;;;5011322;28;20315;-67
2021/06/24 00:23:37;;;;;;;17.10;15.30;;;15.30;99.90;;;;;;5012441;28;20176;-67
2021/06/24 00:26:04;;;;;;;23.67;16.00;;;15.30;99.90;;;;;;5015015;28;20278;-67
2021/06/24 00:28:29;;;;;;;16.23;14.63;;;15.30;99.90;;;;;;5015147;28;20169;-66
2021/06/24 00:30:58;;;;;;;17.23;15.63;;;15.30;99.90;;;;;;5014460;28;20199;-67
2021/06/24 00:33:24;;;;;;;19.23;15.67;;;15.30;99.90;;;;;;5014438;28;20283;-66
2021/06/24 00:35:51;;;;;;;16.53;15.07;;;15.30;99.90;;;;;;5015035;28;20266;-67
2021/06/24 00:38:17;;;;;;;16.73;14.83;;;15.20;99.90;;;;;;5015915;28;20215;-66
2021/06/24 00:40:43;;;;;;;19.53;14.90;;;15.20;99.90;;;;;;5016896;28;20186;-66
2021/06/24 00:43:11;;;;;;;21.27;15.10;;;15.20;99.90;;;;;;5016510;28;20176;-67
2021/06/24 00:45:38;;;;;;;17.60;16.00;;;15.10;99.90;;;;;;5014656;28;20283;-67
2021/06/24 00:48:06;;;;;;;16.67;15.07;;;15.10;99.90;;;;;;5013858;28;20188;-66
2021/06/24 00:50:32;;;;;;;16.63;15.03;;;15.10;99.90;;;;;;5014241;28;20546;-66
2021/06/24 00:52:57;;;;;;;18.27;16.37;;;15.00;99.90;;;;;;5014620;28;20291;-66
2021/06/24 00:58:20;;;;;;;17.60;15.83;;;15.00;99.90;;;;;;5014743;28;20585;-67
2021/06/24 01:00:47;;;;;;;19.53;16.33;;;15.00;99.90;;;;;;5014047;28;20187;-66
2021/06/24 01:03:14;;;;;;;17.17;15.53;;;15.00;99.90;;;;;;5014643;28;20176;-66
2021/06/24 01:05:41;;;;;;;18.13;16.33;;;14.90;99.90;;;;;;5014227;28;20204;-66
2021/06/24 01:08:09;;;;;;;17.73;15.93;;;14.80;99.90;;;;;;5014554;28;20195;-66
2021/06/24 01:10:36;;;;;;;18.93;16.93;;;14.80;99.90;;;;;;5013878;28;20182;-67
2021/06/24 01:13:03;;;;;;;17.70;15.87;;;14.70;99.90;;;;;;5014195;28;20744;-66
2021/06/24 01:15:29;;;;;;;19.03;17.03;;;14.60;99.90;;;;;;5013960;28;20219;-66
2021/06/24 01:17:56;;;;;;;19.37;16.87;;;14.60;99.90;;;;;;5014204;28;20172;-66
2021/06/24 01:20:24;;;;;;;18.17;16.43;;;14.60;99.90;;;;;;5013814;28;20410;-67
2021/06/24 01:22:50;;;;;;;21.63;17.47;;;14.50;99.90;;;;;;5013963;28;20200;-66
2021/06/24 01:25:16;;;;;;;19.33;17.37;;;14.40;99.90;;;;;;5013909;28;20215;-67
2021/06/24 01:27:42;;;;;;;23.53;16.60;;;14.40;99.90;;;;;;5014020;28;20179;-67
2021/06/24 01:30:09;;;;;;;24.63;18.47;;;14.40;99.90;;;;;;5013572;28;20225;-67
2021/06/24 01:32:35;;;;;;;19.40;17.30;;;14.30;99.90;;;;;;5013844;28;20196;-67
2021/06/24 01:35:02;;;;;;;19.73;17.70;;;14.30;99.90;;;;;;5013118;28;20183;-67
2021/06/24 01:37:28;;;;;;;20.07;17.83;;;14.30;99.90;;;;;;5013929;28;20635;-66
2021/06/24 01:39:54;;;;;;;18.53;16.60;;;14.30;99.90;;;;;;5012666;28;20238;-66
2021/06/24 01:42:19;;;;;;;19.27;16.93;;;14.30;99.90;;;;;;5013791;28;20183;-66
2021/06/24 01:47:21;;;;;;;19.33;17.30;;;14.20;99.90;;;;;;5878020;22;20566;-63
2021/06/24 01:49:47;;;;;;;19.63;17.70;;;14.20;99.90;;;;;;5018651;28;20235;-63
2021/06/24 01:52:12;;;;;;;20.17;17.13;;;14.20;99.90;;;;;;5033346;28;20665;-64
2021/06/24 01:54:45;;;;;;;20.20;17.23;;;14.30;99.90;;;;;;5029566;28;20191;-63
2021/06/24 01:57:16;;;;;;;18.87;16.70;;;14.30;99.90;;;;;;5013056;28;20455;-63
2021/06/24 01:59:45;;;;;;;20.17;18.07;;;14.30;99.90;;;;;;5016716;28;20362;-63
2021/06/24 02:02:11;;;;;;;18.80;16.87;;;14.30;99.90;;;;;;5016188;28;20199;-65
2021/06/24 02:04:37;;;;;;;20.43;17.73;;;14.30;99.90;;;;;;5015462;28;20183;-63
2021/06/24 02:07:03;;;;;;;19.07;17.30;;;14.30;99.90;;;;;;5032469;28;20192;-65
2021/06/24 02:09:28;;;;;;;20.43;18.00;;;14.40;99.90;;;;;;5032060;28;20178;-65
2021/06/24 02:11:56;;;;;;;20.50;18.23;;;14.40;99.90;;;;;;5013273;28;20637;-64
2021/06/24 02:14:21;;;;;;;18.87;16.47;;;14.50;99.90;;;;;;5013275;28;20172;-65
2021/06/24 02:16:47;;;;;;;24.93;16.73;;;14.50;99.90;;;;;;5031665;28;20175;-65
2021/06/24 02:19:14;;;;;;;19.40;17.30;;;14.60;99.90;;;;;;5032792;28;20202;-64
2021/06/24 02:21:40;;;;;;;18.37;16.07;;;14.60;99.90;;;;;;5015286;28;20180;-63
2021/06/24 02:24:06;;;;;;;18.03;15.80;;;14.70;99.90;;;;;;5019766;28;20201;-65
2021/06/24 02:26:31;;;;;;;18.87;16.10;;;14.70;99.90;;;;;;5032658;28;20218;-64
2021/06/24 02:28:57;;;;;;;18.70;16.60;;;14.80;99.90;;;;;;5030860;28;20196;-65
2021/06/24 02:31:24;;;;;;;19.10;16.20;;;14.80;99.90;;;;;;5032703;28;20191;-65
2021/06/24 02:33:50;;;;;;;16.97;15.30;;;14.80;99.90;;;;;;5029323;28;20286;-65
2021/06/24 02:36:16;;;;;;;18.67;16.77;;;14.80;99.90;;;;;;5012670;28;20172;-66
2021/06/24 02:38:41;;;;;;;17.60;15.80;;;14.80;99.90;;;;;;5014166;28;20668;-64
2021/06/24 02:41:07;;;;;;;19.87;17.77;;;14.70;99.90;;;;;;5015491;28;20258;-66
2021/06/24 02:43:33;;;;;;;17.50;15.77;;;14.60;99.90;;;;;;5012865;28;20267;-64
2021/06/24 02:45:59;;;;;;;17.10;15.30;;;14.50;99.90;;;;;;5031131;28;20191;-66
2021/06/24 02:48:24;;;;;;;18.40;16.33;;;14.50;99.90;;;;;;5032344;28;20207;-65
2021/06/24 02:50:50;;;;;;;18.80;15.60;;;14.50;99.90;;;;;;5014360;28;20211;-65
2021/06/24 02:53:16;;;;;;;17.50;15.30;;;14.50;99.90;;;;;;5012360;28;20283;-65
2021/06/24 02:55:43;;;;;;;18.97;15.77;;;14.40;99.90;;;;;;5027917;28;20191;-64
2021/06/24 02:58:10;;;;;;;15.90;14.40;;;14.50;99.90;;;;;;5032188;28;20223;-65
2021/06/24 03:00:36;;;;;;;16.80;15.20;;;14.60;99.90;;;;;;5017386;28;20183;-63
2021/06/24 03:03:01;;;;;;;16.53;14.90;;;14.60;99.90;;;;;;5012276;28;20180;-64
2021/06/24 03:05:27;;;;;;;18.43;15.57;;;14.70;99.90;;;;;;5013412;28;20258;-64
2021/06/24 03:07:53;;;;;;;18.20;15.87;;;14.80;99.90;;;;;;5019813;28;20211;-63
2021/06/24 03:10:20;;;;;;;16.27;14.67;;;14.90;99.90;;;;;;5031886;28;20186;-64
2021/06/24 03:12:46;;;;;;;17.07;14.93;;;15.00;99.90;;;;;;5025496;28;20259;-64
2021/06/24 03:15:12;;;;;;;16.70;15.10;;;15.10;99.90;;;;;;5012078;28;20208;-64
2021/06/24 03:17:38;;;;;;;16.47;14.93;;;15.20;99.90;;;;;;5016169;28;20235;-63
2021/06/24 03:20:09;;;;;;;20.93;15.63;;;15.30;99.90;;;;;;5031924;28;20210;-64
2021/06/24 03:22:35;;;;;;;16.83;15.13;;;15.20;99.90;;;;;;5030163;28;20664;-65
2021/06/24 03:25:02;;;;;;;19.43;14.83;;;15.30;99.90;;;;;;5031726;28;20365;-66
2021/06/24 03:27:28;;;;;;;16.33;14.70;;;15.30;99.90;;;;;;5029396;28;20580;-66
2021/06/24 03:29:53;;;;;;;18.43;14.63;;;15.30;99.90;;;;;;5011961;28;20267;-66
2021/06/24 03:32:19;;;;;;;16.73;13.63;;;15.40;99.90;;;;;;5011853;28;20203;-63
2021/06/24 03:34:44;;;;;;;19.33;14.77;;;15.20;99.90;;;;;;4992447;28;20177;-64
2021/06/24 03:37:10;;;;;;;17.00;15.40;;;15.10;99.90;;;;;;4992136;28;20239;-63
2021/06/24 03:39:36;;;;;;;16.77;15.10;;;15.10;99.90;;;;;;5028372;28;20183;-64
2021/06/24 03:42:02;;;;;;;16.20;14.60;;;15.10;99.90;;;;;;5031798;28;20551;-63
2021/06/24 03:44:27;;;;;;;15.07;13.67;;;15.00;99.90;;;;;;5015241;28;20208;-66
2021/06/24 03:46:53;;;;;;;17.67;14.57;;;15.00;99.90;;;;;;5012022;28;20270;-66
2021/06/24 03:49:19;;;;;;;16.10;14.50;;;15.00;99.90;;;;;;5025724;28;20195;-64
2021/06/24 03:51:45;;;;;;;17.90;14.83;;;15.00;99.90;;;;;;5031543;28;20180;-65
2021/06/24 03:54:10;;;;;;;19.07;14.93;;;15.00;99.90;;;;;;5018914;28;20859;-65
2021/06/24 03:56:36;;;;;;;16.40;14.83;;;15.00;99.90;;;;;;5011748;28;20179;-65
2021/06/24 03:59:02;;;;;;;16.87;15.30;;;15.10;99.90;;;;;;5025925;28;20191;-65
2021/06/24 04:01:29;;;;;;;17.53;15.63;;;15.20;99.90;;;;;;5035446;28;20317;-65
2021/06/24 04:03:54;;;;;;;15.10;13.50;;;15.20;99.90;;;;;;5026320;28;20271;-64
2021/06/24 04:06:20;;;;;;;16.17;14.47;;;15.20;99.90;;;;;;5015357;28;20267;-64
2021/06/24 04:08:45;;;;;;;14.87;13.03;;;15.20;99.90;;;;;;5016562;28;20212;-64
2021/06/24 04:11:11;;;;;;;16.83;14.47;;;15.10;99.90;;;;;;5015434;28;20559;-66
2021/06/24 04:13:37;;;;;;;17.47;15.27;;;15.10;99.90;;;;;;5020554;28;20199;-66
2021/06/24 04:16:06;;;;;;;15.90;14.27;;;15.10;99.90;;;;;;5035074;28;20262;-66
2021/06/24 04:18:32;;;;;;;15.67;13.43;;;15.30;99.90;;;;;;5031071;28;20210;-64
2021/06/24 04:20:58;;;;;;;16.27;14.63;;;15.30;99.90;;;;;;5014084;28;20602;-65
2021/06/24 04:23:23;;;;;;;16.47;14.77;;;15.30;99.90;;;;;;5025633;28;20187;-66
2021/06/24 04:25:50;;;;;;;14.80;13.23;;;15.50;99.90;;;;;;5034898;28;20677;-69
2021/06/24 04:28:15;;;;;;;13.97;12.73;;;15.60;99.90;;;;;;5025946;28;20704;-68
2021/06/24 04:30:41;;;;;;;13.93;12.70;;;15.60;99.90;;;;;;5015209;28;20188;-65
2021/06/24 04:33:07;;;;;;;16.67;13.90;;;15.60;99.90;;;;;;5021646;28;20210;-66
2021/06/24 04:35:33;;;;;;;14.47;13.07;;;15.50;99.90;;;;;;5034847;28;20314;-65
2021/06/24 04:37:59;;;;;;;15.90;14.30;;;15.60;99.90;;;;;;5029404;28;20223;-64
2021/06/24 04:40:25;;;;;;;19.80;14.47;;;15.70;99.90;;;;;;5014961;28;20172;-65
2021/06/24 04:42:51;;;;;;;15.40;14.00;;;15.70;99.90;;;;;;5018102;28;20197;-64
2021/06/24 04:45:17;;;;;;;15.43;14.13;;;15.80;99.90;;;;;;5034494;28;20179;-64
2021/06/24 04:47:43;;;;;;;15.13;13.73;;;15.80;99.90;;;;;;5032717;28;20206;-64
2021/06/24 04:50:10;;;;;;;16.63;13.57;;;15.70;99.90;;;;;;5014791;28;20194;-64
2021/06/24 04:52:36;;;;;;;14.47;13.17;;;15.80;99.90;;;;;;5014572;28;20894;-66
2021/06/24 04:55:02;;;;;;;14.10;12.90;;;15.90;99.90;;;;;;5034139;28;20215;-65
2021/06/24 04:57:28;;;;;;;19.70;13.87;;;16.00;99.90;;;;;;5034021;28;20199;-64
2021/06/24 04:59:54;;;;;;;14.37;12.97;;;16.10;99.90;;;;;;5016184;28;20184;-63
2021/06/24 05:02:19;;;;;;;14.77;13.40;;;16.10;99.90;;;;;;5014503;28;20646;-64
2021/06/24 05:04:45;;;;;;;15.13;13.80;;;16.10;99.90;;;;;;5030549;28;20183;-64
2021/06/24 05:07:11;;;;;;;15.13;13.50;;;16.20;99.90;;;;;;5033805;28;20249;-64
2021/06/24 05:09:41;;;;;;;14.10;12.80;;;16.30;99.90;;;;;;5018769;28;20210;-64
2021/06/24 05:12:08;;;;;;;15.03;13.63;;;16.40;99.90;;;;;;5014361;28;20231;-64
2021/06/24 05:14:34;;;;;;;14.87;12.90;;;16.30;99.90;;;;;;5020708;28;20188;-64
2021/06/24 05:17:00;;;;;;;14.23;12.87;;;16.30;99.90;;;;;;5013897;28;20279;-64
2021/06/24 05:19:27;;;;;;;15.53;14.10;;;16.40;99.90;;;;;;5024805;28;20271;-64
2021/06/24 05:21:52;;;;;;;13.53;12.33;;;16.40;99.90;;;;;;5033967;28;20176;-64
2021/06/24 05:24:18;;;;;;;14.77;12.93;;;16.50;99.90;;;;;;5023931;28;20195;-64
2021/06/24 05:26:44;;;;;;;14.33;12.93;;;16.60;99.90;;;;;;5013834;28;20187;-67
2021/06/24 05:29:09;;;;;;;16.00;14.23;;;16.60;99.90;;;;;;5021621;28;20187;-67
2021/06/24 05:31:37;;;;;;;15.13;13.63;;;16.60;99.90;;;;;;5033772;28;20601;-66
2021/06/24 05:34:04;;;;;;;14.67;13.30;;;16.70;99.90;;;;;;5032252;28;20179;-67
2021/06/24 05:36:31;;;;;;;15.30;13.87;;;16.80;99.90;;;;;;5033517;28;20181;-67
2021/06/24 05:38:57;;;;;;;15.40;13.80;;;16.90;99.90;;;;;;5028452;28;20804;-66
2021/06/24 05:41:23;;;;;;;15.73;13.83;;;16.90;99.90;;;;;;5013772;28;20255;-68
2021/06/24 05:43:49;;;;;;;15.87;13.80;;;17.00;99.90;;;;;;5016754;28;20258;-67
2021/06/24 05:46:15;;;;;;;15.57;13.93;;;17.10;99.90;;;;;;5033685;28;20199;-66
2021/06/24 05:48:40;;;;;;;15.00;13.43;;;17.40;99.90;;;;;;5032090;28;20219;-64
2021/06/24 05:51:06;;;;;;;14.63;13.07;;;17.50;99.90;;;;;;5013623;28;20203;-65
2021/06/24 05:53:31;;;;;;;13.77;12.37;;;17.80;99.90;;;;;;5013520;28;20207;-64
2021/06/24 05:55:58;;;;;;;13.80;12.40;;;18.00;99.90;;;;;;5032384;28;20171;-65
2021/06/24 05:58:26;;;;;;;14.47;12.77;;;18.20;99.90;;;;;;5016772;28;20204;-66
2021/06/24 06:00:53;;;;;;;12.87;11.67;;;18.20;99.90;;;;;;5030973;28;20190;-66
2021/06/24 06:03:20;;;;;;;15.07;12.23;;;18.20;99.90;;;;;;5032964;28;20183;-66
2021/06/24 06:05:47;;;;;;;14.17;12.87;;;18.30;99.90;;;;;;5016466;28;20184;-66
2021/06/24 06:08:14;;;;;;;14.10;12.77;;;18.40;99.90;;;;;;5016843;28;20196;-64
2021/06/24 06:10:40;;;;;;;14.73;13.33;;;18.50;99.90;;;;;;5012523;28;20176;-64
2021/06/24 06:13:07;;;;;;;14.90;13.00;;;18.50;99.90;;;;;;5018420;28;20294;-65
2021/06/24 06:15:41;;;;;;;13.53;12.33;;;18.50;99.90;;;;;;5020325;28;20203;-64
2021/06/24 06:18:22;;;;;;;14.73;13.23;;;18.50;99.90;;;;;;5016838;28;20195;-64
2021/06/24 06:20:48;;;;;;;15.07;13.47;;;18.60;99.90;;;;;;5032787;28;20189;-64
2021/06/24 06:23:15;;;;;;;15.77;14.23;;;18.70;99.90;;;;;;5017891;28;20207;-64
2021/06/24 06:25:41;;;;;;;15.53;13.83;;;18.70;99.90;;;;;;5012640;28;20180;-67
2021/06/24 06:28:08;;;;;;;14.73;12.87;;;18.70;99.90;;;;;;5026588;28;20593;-66
2021/06/24 06:30:34;;;;;;;15.67;14.17;;;18.60;99.90;;;;;;5032605;28;20191;-66
2021/06/24 06:33:01;;;;;;;15.80;13.73;;;18.60;99.90;;;;;;5030962;28;20214;-67
2021/06/24 06:35:27;;;;;;;16.27;14.57;;;18.60;99.90;;;;;;5032467;28;20179;-64
2021/06/24 06:37:53;;;;;;;16.07;14.60;;;18.60;99.90;;;;;;5021317;28;20207;-66
2021/06/24 06:40:18;;;;;;;15.27;13.87;;;18.60;99.90;;;;;;5012576;28;20554;-66
2021/06/24 06:42:44;;;;;;;16.60;14.80;;;18.70;99.90;;;;;;5013852;28;20184;-68
2021/06/24 06:45:11;;;;;;;15.67;14.03;;;18.70;99.90;;;;;;5012501;28;20176;-67
2021/06/24 06:47:36;;;;;;;17.73;14.50;;;18.80;99.90;;;;;;5017580;28;20540;-68
2021/06/24 06:50:03;;;;;;;18.20;14.87;;;18.90;99.90;;;;;;5032308;28;20198;-68
2021/06/24 06:52:28;;;;;;;19.17;17.53;;;19.00;99.90;;;;;;5026116;28;20212;-64
2021/06/24 06:54:54;;;;;;;15.33;14.00;;;19.20;99.90;;;;;;5012554;28;20586;-65
2021/06/24 06:57:20;;;;;;;16.13;14.63;;;19.40;99.90;;;;;;5013074;28;20569;-65
2021/06/24 06:59:45;;;;;;;17.50;15.90;;;19.50;99.90;;;;;;5012407;28;20176;-66
2021/06/24 07:02:11;;;;;;;17.40;15.83;;;19.50;99.90;;;;;;5013728;28;20176;-66
2021/06/24 07:04:37;;;;;;;14.90;13.40;;;19.50;99.90;;;;;;5032125;28;20645;-66
2021/06/24 07:07:03;;;;;;;22.67;15.97;;;19.50;99.90;;;;;;5031335;28;20230;-67
2021/06/24 07:09:29;;;;;;;16.50;14.70;;;19.70;99.90;;;;;;5030352;28;20187;-67
2021/06/24 07:11:55;;;;;;;16.33;14.83;;;19.40;99.90;;;;;;5031889;28;20207;-66
2021/06/24 07:14:21;;;;;;;16.63;14.93;;;19.40;99.90;;;;;;5013545;28;20176;-67
2021/06/24 07:16:48;;;;;;;17.30;15.70;;;19.50;99.90;;;;;;5011930;28;20168;-67
2021/06/24 07:19:13;;;;;;;15.87;14.17;;;19.60;99.90;;;;;;5028186;28;20189;-64
2021/06/24 07:21:39;;;;;;;16.23;14.73;;;19.70;99.90;;;;;;5031862;28;20257;-66
2021/06/24 07:24:06;;;;;;;18.03;14.83;;;19.70;99.90;;;;;;5016791;28;20623;-65
2021/06/24 07:26:31;;;;;;;18.37;16.50;;;19.70;99.90;;;;;;5011689;28;20177;-66
2021/06/24 07:28:57;;;;;;;17.07;15.40;;;19.70;99.90;;;;;;5024946;28;20738;-66
2021/06/24 07:31:23;;;;;;;16.17;14.67;;;19.60;99.90;;;;;;5031003;28;20692;-65
2021/06/24 07:33:48;;;;;;;15.13;13.70;;;19.60;99.90;;;;;;5020009;28;20219;-67
2021/06/24 07:36:14;;;;;;;15.60;14.10;;;19.60;99.90;;;;;;5012508;28;20187;-67
2021/06/24 07:38:39;;;;;;;17.13;15.53;;;19.60;99.90;;;;;;5015588;28;20563;-66
2021/06/24 07:41:05;;;;;;;17.20;14.57;;;20.00;99.90;;;;;;5014280;28;20642;-66
2021/06/24 07:43:31;;;;;;;19.30;15.83;;;20.20;99.90;;;;;;5031574;28;20603;-66
2021/06/24 07:45:56;;;;;;;16.37;15.00;;;20.50;99.90;;;;;;5020903;28;20187;-68
2021/06/24 07:48:22;;;;;;;15.37;13.67;;;20.90;99.90;;;;;;5019229;28;20290;-66
2021/06/24 07:50:48;;;;;;;14.43;13.13;;;21.10;99.90;;;;;;5016209;28;20287;-66
2021/06/24 07:53:14;;;;;;;13.10;11.87;;;21.10;99.90;;;;;;5010250;28;20677;-67
2021/06/24 07:55:40;;;;;;;14.43;12.93;;;21.50;99.90;;;;;;5029564;28;20210;-63
2021/06/24 07:58:07;;;;;;;14.27;12.97;;;21.50;99.90;;;;;;5031418;28;20202;-65
2021/06/24 08:00:34;;;;;;;13.75;12.50;;;21.70;99.90;;;;;;5022908;28;20215;-65
2021/06/24 08:03:01;;;;;;;12.77;11.63;;;22.10;99.90;;;;;;5012087;28;20172;-65
2021/06/24 08:05:27;;;;;;;12.15;10.93;;;22.30;99.90;;;;;;5022059;28;20581;-65
2021/06/24 08:07:53;;;;;;;13.20;11.88;;;22.50;99.90;;;;;;5025214;28;20234;-64
2021/06/24 08:10:20;;;;;;;14.07;11.77;;;23.00;99.90;;;;;;5018683;28;20180;-67
2021/06/24 08:12:46;;;;;;;12.50;11.15;;;23.00;99.90;;;;;;5011492;28;20211;-67
2021/06/24 08:15:14;;;;;;;15.05;10.50;;;23.30;99.90;;;;;;5011415;28;20176;-66
2021/06/24 08:17:41;;;;;;;12.57;11.40;;;23.40;99.90;;;;;;5011390;28;20192;-67
2021/06/24 08:20:09;;;;;;;13.20;11.75;;;23.40;99.90;;;;;;5012665;28;20180;-65
2021/06/24 08:22:35;;;;;;;12.98;11.65;;;23.40;99.90;;;;;;5011608;28;20184;-65
2021/06/24 08:25:01;;;;;;;15.40;12.18;;;23.10;99.90;;;;;;5014885;28;20195;-66
2021/06/24 08:27:26;;;;;;;12.95;11.75;;;23.30;99.90;;;;;;5012868;28;20208;-65
2021/06/24 08:29:52;;;;;;;14.50;11.38;;;23.30;99.90;;;;;;5022335;28;20680;-66
2021/06/24 08:32:18;;;;;;;12.65;11.38;;;23.10;99.90;;;;;;5011271;28;20223;-66
2021/06/24 08:34:43;;;;;;;13.00;11.80;;;23.30;99.90;;;;;;5031185;28;20171;-67
2021/06/24 08:37:10;;;;;;;12.82;11.55;;;23.50;99.90;;;;;;5030558;28;20187;-65
2021/06/24 08:39:35;;;;;;;12.07;11.02;;;23.90;99.90;;;;;;5012511;28;20909;-64
2021/06/24 08:42:02;;;;;;;12.07;10.93;;;24.40;99.90;;;;;;5011279;28;20262;-66
2021/06/24 08:44:28;;;;;;;12.43;11.25;;;25.00;99.90;;;;;;5029359;28;20183;-66
2021/06/24 08:46:57;;;;;;;12.27;11.15;;;25.60;99.90;;;;;;5034242;28;20187;-67
2021/06/24 08:49:24;;;;;;;12.57;11.35;;;26.00;99.90;;;;;;5018561;28;20606;-67
2021/06/24 08:51:51;;;;;;;11.07;10.18;;;26.50;99.90;;;;;;5014682;28;20649;-65
2021/06/24 08:54:17;;;;;;;10.50;9.48;;;26.80;99.90;;;;;;5028531;28;20738;-65
2021/06/24 08:56:42;;;;;;;12.18;11.05;;;27.20;99.90;;;;;;5034136;28;20171;-67
2021/06/24 08:59:08;;;;;;;12.70;11.70;;;27.30;99.90;;;;;;5021740;28;20176;-66
2021/06/24 09:01:57;;;;;;;12.45;11.35;;;27.50;99.90;;;;;;5014499;28;20168;-66
2021/06/24 09:04:24;;;;;;;13.70;12.40;;;27.50;99.90;;;;;;5028004;28;20175;-67
2021/06/24 09:06:52;;;;;;;13.65;11.63;;;27.30;99.90;;;;;;5034083;28;20167;-67
2021/06/24 09:09:28;;;;;;;14.15;12.65;;;26.60;99.90;;;;;;5032337;28;20180;-65
2021/06/24 09:12:09;;;;;;;13.57;12.00;;;25.70;99.90;;;;;;5034124;28;20175;-65
2021/06/24 09:14:58;;;;;;;13.85;12.55;;;25.00;99.90;;;;;;5019517;28;20211;-65
2021/06/24 09:17:34;;;;;;;12.85;11.65;;;24.50;99.90;;;;;;5013712;28;20211;-64
2021/06/24 09:20:01;;;;;;;12.65;11.50;;;24.70;99.90;;;;;;5031232;28;20179;-66
2021/06/24 09:22:27;;;;;;;13.48;12.23;;;24.50;99.90;;;;;;5033956;28;20178;-66
2021/06/24 09:24:53;;;;;;;13.13;11.95;;;24.70;99.90;;;;;;5017895;28;20184;-66
2021/06/24 09:27:19;;;;;;;12.38;11.27;;;25.00;99.90;;;;;;5012278;28;20211;-65
2021/06/24 09:30:13;;;;;;;13.35;11.95;;;25.10;99.90;;;;;;5027918;28;20266;-65
2021/06/24 09:32:45;;;;;;;13.57;12.20;;;25.10;99.90;;;;;;5016254;28;20188;-67
2021/06/24 09:35:29;;;;;;;13.77;12.43;;;25.20;99.90;;;;;;5012950;28;20212;-67
2021/06/24 09:38:13;;;;;;;12.82;11.63;;;25.10;99.90;;;;;;5016702;28;20283;-67
2021/06/24 09:40:40;;;;;;;14.57;13.05;;;24.80;99.90;;;;;;5033067;28;20172;-65
2021/06/24 09:43:07;;;;;;;13.25;11.60;;;24.30;99.90;;;;;;5031988;28;20176;-66
2021/06/24 09:45:32;;;;;;;14.07;12.73;;;24.10;99.90;;;;;;5033368;28;20176;-64
2021/06/24 09:48:12;;;;;;;15.48;14.10;;;23.70;99.90;;;;;;5028869;28;20210;-66
2021/06/24 09:50:39;;;;;;;15.20;13.80;;;23.50;99.90;;;;;;5013621;28;20594;-65
2021/06/24 09:53:07;;;;;;;15.63;14.10;;;23.30;99.90;;;;;;5019922;28;20218;-66
2021/06/24 09:55:33;;;;;;;18.92;14.40;;;23.30;99.90;;;;;;5032812;28;20177;-66
2021/06/24 09:58:16;;;;;;;16.13;14.65;;;23.40;99.90;;;;;;5026628;28;20291;-66
2021/06/24 10:00:53;;;;;;;16.02;13.07;;;24.00;99.90;;;;;;5013483;28;20176;-67
2021/06/24 10:03:19;;;;;;;14.82;13.32;;;24.30;99.90;;;;;;5021292;28;20187;-66
2021/06/24 10:05:47;;;;;;;16.27;14.57;;;24.60;99.90;;;;;;5032907;28;20184;-65
2021/06/24 10:08:13;;;;;;;15.35;13.80;;;24.70;99.90;;;;;;5025805;28;20273;-65
2021/06/24 10:10:41;;;;;;;14.75;13.35;;;24.80;99.90;;;;;;5013334;28;20176;-64
2021/06/24 10:13:08;;;;;;;14.23;12.88;;;25.10;99.90;;;;;;5021991;28;20234;-67
2021/06/24 10:15:34;;;;;;;14.63;13.13;;;25.20;99.90;;;;;;5032847;28;20618;-65
2021/06/24 10:18:00;;;;;;;14.70;13.20;;;25.30;99.90;;;;;;5019508;28;20215;-65
2021/06/24 10:20:29;;;;;;;15.75;14.20;;;25.50;99.90;;;;;;5020684;28;20175;-64
2021/06/24 10:23:09;;;;;;;15.52;14.13;;;25.50;99.90;;;;;;5032910;28;20191;-65
2021/06/24 10:25:38;;;;;;;14.07;12.65;;;25.30;99.90;;;;;;5023859;28;20242;-67
2021/06/24 10:28:04;;;;;;;14.15;12.82;;;25.00;99.90;;;;;;5012824;28;20662;-68
2021/06/24 10:30:38;;;;;;;14.10;12.68;;;24.90;99.90;;;;;;5019920;28;20183;-64
2021/06/24 10:33:11;;;;;;;18.92;13.40;;;24.90;99.90;;;;;;5032930;28;20680;-66
2021/06/24 10:35:39;;;;;;;14.90;13.35;;;24.50;99.90;;;;;;5031064;28;20175;-67
2021/06/24 10:38:06;;;;;;;14.55;13.07;;;24.70;99.90;;;;;;5032684;28;20657;-66
2021/06/24 10:40:37;;;;;;;13.15;12.00;;;24.90;99.90;;;;;;5025667;28;20700;-66
2021/06/24 10:43:12;;;;;;;16.35;14.00;;;25.10;99.90;;;;;;5012724;28;20179;-65
2021/06/24 10:45:38;;;;;;;15.98;13.43;;;25.10;99.90;;;;;;5019064;28;20197;-66
2021/06/24 10:48:31;;;;;;;13.30;12.00;;;25.20;99.90;;;;;;5032134;28;20593;-66
2021/06/24 10:51:09;;;;;;;11.65;10.65;;;25.20;99.90;;;;;;5023409;28;20195;-65
2021/06/24 10:53:46;;;;;;;15.30;11.70;;;25.20;99.90;;;;;;5024265;28;20207;-65
2021/06/24 10:56:28;;;;;;;11.98;11.00;;;25.00;99.90;;;;;;5021370;28;20549;-64
2021/06/24 10:58:55;;;;;;;13.40;10.63;;;25.50;99.90;;;;;;5012272;28;20323;-64
2021/06/24 11:01:46;;;;;;;11.80;10.68;;;26.30;99.90;;;;;;5022890;28;20550;-65
2021/06/24 11:04:45;;;;;;;12.00;10.95;;;26.30;99.90;;;;;;5031991;28;20640;-64
2021/06/24 11:07:22;;;;;;;12.25;11.10;;;26.00;99.90;;;;;;5001394;28;20219;-64
2021/06/24 11:10:26;;;;;;;12.20;11.20;;;25.90;99.90;;;;;;5012482;28;20229;-64
2021/06/24 11:12:59;;;;;;;11.90;10.80;;;25.80;99.90;;;;;;4970778;28;20209;-64
2021/06/24 11:15:44;;;;;;;11.48;10.18;;;25.90;99.90;;;;;;4971217;28;20537;-65
2021/06/24 11:18:29;;;;;;;12.27;11.05;;;26.20;99.90;;;;;;5016244;28;20218;-65
2021/06/24 11:20:55;;;;;;;12.55;11.25;;;25.70;99.90;;;;;;5026159;28;20184;-66
2021/06/24 11:23:35;;;;;;;13.73;11.93;;;25.80;99.90;;;;;;5011779;28;20172;-65
2021/06/24 11:26:13;;;;;;;11.05;10.02;;;25.70;99.90;;;;;;5012875;28;20617;-64
2021/06/24 11:31:16;;;;;;;12.55;11.35;;;25.50;99.90;;;;;;5018324;28;20186;-64
2021/06/24 11:33:47;;;;;;;12.05;10.45;;;25.50;99.90;;;;;;5031267;28;20230;-66
2021/06/24 11:36:15;;;;;;;11.90;10.52;;;25.60;99.90;;;;;;5029825;28;20174;-65
2021/06/24 11:38:46;;;;;;;12.05;10.68;;;25.60;99.90;;;;;;5031438;28;20281;-65
2021/06/24 11:41:12;;;;;;;11.90;10.65;;;25.40;99.90;;;;;;5025982;28;20291;-65
2021/06/24 11:43:39;;;;;;;10.95;9.95;;;25.00;99.90;;;;;;5018157;28;20648;-66
2021/06/24 11:46:05;;;;;;;10.88;9.82;;;25.10;99.90;;;;;;5027346;28;20542;-64
2021/06/24 11:48:31;;;;;;;12.80;11.10;;;25.40;99.90;;;;;;5011452;28;20297;-65
2021/06/24 12:04:57;;;;;;;12.88;11.55;;;23.60;99.90;;;;;;5031522;28;20232;-66
2021/06/24 12:07:22;;;;;;;12.55;11.27;;;23.70;99.90;;;;;;5018447;28;20200;-65
2021/06/24 12:09:50;;;;;;;12.70;11.30;;;23.80;99.90;;;;;;5011579;28;20168;-66
2021/06/24 12:12:21;;;;;;;13.85;11.63;;;23.70;99.90;;;;;;5022058;28;20199;-67
2021/06/24 12:14:48;;;;;;;12.75;11.25;;;23.90;99.90;;;;;;5031334;28;20179;-65
2021/06/24 12:17:21;;;;;;;11.93;10.73;;;24.00;99.90;;;;;;5020560;28;20191;-66
2021/06/24 12:19:57;;;;;;;11.25;10.15;;;24.10;99.90;;;;;;5020060;28;20180;-67
2021/06/24 12:22:36;;;;;;;12.63;11.05;;;24.10;99.90;;;;;;5035072;28;20179;-66
2021/06/24 12:25:12;;;;;;;11.10;10.00;;;24.10;99.90;;;;;;5028395;28;20274;-67
2021/06/24 12:27:46;;;;;;;12.75;11.45;;;24.10;99.90;;;;;;5014753;28;20213;-66
2021/06/24 12:30:14;;;;;;;14.25;10.48;;;24.10;99.90;;;;;;5022234;28;20644;-65
2021/06/24 12:32:48;;;;;;;11.52;10.40;;;24.10;99.90;;;;;;5034767;28;20210;-66
2021/06/24 12:35:20;;;;;;;12.48;10.38;;;24.10;99.90;;;;;;5033176;28;20176;-65
2021/06/24 12:37:50;;;;;;;15.52;10.88;;;24.10;99.90;;;;;;5034429;28;20685;-65
2021/06/24 12:40:18;;;;;;;12.93;11.63;;;24.10;99.90;;;;;;5027745;28;20187;-66
2021/06/24 12:42:44;;;;;;;12.68;11.63;;;24.10;99.90;;;;;;5014900;28;20176;-67
2021/06/24 12:45:11;;;;;;;12.70;11.40;;;24.00;99.90;;;;;;5020225;28;20180;-66
2021/06/24 12:47:40;;;;;;;10.98;9.98;;;23.90;99.90;;;;;;5033182;28;20195;-66
2021/06/24 12:50:33;;;;;;;10.75;9.85;;;24.10;99.90;;;;;;5029977;28;20272;-65
2021/06/24 12:53:00;;;;;;;11.63;9.55;;;24.20;99.90;;;;;;5012195;28;20218;-64
2021/06/24 12:55:39;;;;;;;12.60;11.40;;;24.10;99.90;;;;;;5020707;28;20175;-66